createdAt,value
2018-10-06T00:00:19.177Z,7.17
2018-10-06T00:02:47.332Z,6.30
2018-10-06T00:05:15.656Z,6.03
2018-10-06T00:07:43.797Z,6.30
2018-10-06T00:10:11.952Z,6.43
2018-10-06T00:12:40.050Z,6.23
2018-10-06T00:15:08.406Z,6.20
2018-10-06T00:17:36.491Z,5.43
2018-10-06T00:20:04.777Z,6.53
2018-10-06T00:22:32.857Z,5.90
2018-10-06T00:25:00.999Z,6.10
2018-10-06T00:27:29.157Z,5.87
2018-10-06T00:29:57.763Z,6.37
2018-10-06T00:32:26.517Z,6.03
2018-10-06T00:34:54.711Z,5.80
2018-10-06T00:37:22.911Z,5.93
2018-10-06T00:39:51.077Z,5.53
2018-10-06T00:42:19.130Z,5.40
2018-10-06T00:44:47.389Z,5.10
2018-10-06T00:47:15.475Z,5.53
2018-10-06T00:49:43.649Z,4.77
2018-10-06T00:52:11.715Z,5.20
2018-10-06T00:54:39.783Z,5.47
2018-10-06T00:57:07.885Z,5.77
2018-10-06T00:59:36.035Z,5.40
2018-10-06T01:02:05.041Z,5.17
2018-10-06T01:04:33.335Z,5.17
2018-10-06T01:07:01.525Z,5.13
2018-10-06T01:09:29.666Z,5.03
2018-10-06T01:11:57.760Z,5.30
2018-10-06T01:14:25.823Z,5.10
2018-10-06T01:16:53.980Z,5.50
2018-10-06T01:19:22.086Z,5.07
2018-10-06T01:21:50.212Z,5.17
2018-10-06T01:24:18.336Z,5.43
2018-10-06T01:26:46.492Z,6.00
2018-10-06T01:29:14.596Z,7.53
2018-10-06T01:31:42.802Z,6.13
2018-10-06T01:34:10.892Z,6.70
2018-10-06T01:36:39.029Z,6.50
2018-10-06T01:39:07.463Z,5.67
2018-10-06T01:41:35.490Z,6.07
2018-10-06T01:44:03.644Z,5.53
2018-10-06T01:46:31.703Z,5.50
2018-10-06T01:48:59.999Z,6.17
2018-10-06T01:51:28.223Z,5.53
2018-10-06T01:53:56.278Z,5.60
2018-10-06T01:56:24.366Z,6.10
2018-10-06T01:58:52.485Z,5.23
2018-10-06T02:01:20.501Z,6.10
2018-10-06T02:03:48.759Z,5.93
2018-10-06T02:06:17.126Z,5.37
2018-10-06T02:08:45.343Z,6.17
2018-10-06T02:11:13.409Z,5.90
2018-10-06T02:13:42.161Z,5.53
2018-10-06T02:16:10.279Z,5.73
2018-10-06T02:18:38.373Z,5.50
2018-10-06T02:21:06.577Z,5.50
2018-10-06T02:23:34.812Z,5.47
2018-10-06T02:26:02.959Z,4.77
2018-10-06T02:28:31.149Z,4.47
2018-10-06T02:30:59.261Z,4.63
2018-10-06T02:33:27.325Z,4.83
2018-10-06T02:35:55.648Z,4.60
2018-10-06T02:38:23.790Z,4.30
2018-10-06T02:40:52.061Z,4.97
2018-10-06T02:43:20.897Z,4.43
2018-10-06T02:45:48.997Z,5.10
2018-10-06T02:48:17.366Z,4.73
2018-10-06T02:50:45.508Z,5.20
2018-10-06T02:53:13.512Z,4.83
2018-10-06T02:55:41.753Z,4.57
2018-10-06T02:58:09.953Z,4.60
2018-10-06T03:00:38.320Z,4.20
2018-10-06T03:03:06.494Z,4.33
2018-10-06T03:05:34.668Z,4.50
2018-10-06T03:08:02.696Z,4.70
2018-10-06T03:10:30.819Z,4.10
2018-10-06T03:12:58.937Z,4.40
2018-10-06T03:15:27.191Z,4.70
2018-10-06T03:17:55.383Z,4.60
2018-10-06T03:20:23.603Z,4.70
2018-10-06T03:22:51.683Z,4.40
2018-10-06T03:25:19.852Z,4.97
2018-10-06T03:27:48.142Z,4.40
2018-10-06T03:30:16.367Z,4.23
2018-10-06T03:32:44.620Z,4.37
2018-10-06T03:35:12.750Z,4.03
2018-10-06T03:37:40.830Z,3.90
2018-10-06T03:40:09.085Z,4.23
2018-10-06T03:42:37.110Z,3.87
2018-10-06T03:45:05.330Z,4.40
2018-10-06T03:47:33.419Z,4.70
2018-10-06T03:50:01.470Z,4.77
2018-10-06T03:52:29.548Z,4.37
2018-10-06T03:54:57.753Z,4.60
2018-10-06T03:57:25.814Z,4.90
2018-10-06T03:59:54.006Z,4.73
2018-10-06T04:02:22.240Z,5.67
2018-10-06T04:04:50.438Z,5.40
2018-10-06T04:07:18.457Z,5.40
2018-10-06T04:09:46.588Z,5.70
2018-10-06T04:12:14.673Z,7.90
2018-10-06T04:14:42.809Z,7.13
2018-10-06T04:17:10.879Z,6.73
2018-10-06T04:19:38.889Z,6.13
2018-10-06T04:22:07.053Z,5.47
2018-10-06T04:24:35.139Z,5.00
2018-10-06T04:27:03.260Z,5.30
2018-10-06T04:29:31.214Z,5.10
2018-10-06T04:31:59.241Z,5.77
2018-10-06T04:34:27.670Z,5.93
2018-10-06T04:36:55.761Z,5.90
2018-10-06T04:39:23.872Z,5.90
2018-10-06T04:41:51.942Z,6.20
2018-10-06T04:44:20.041Z,6.00
2018-10-06T04:46:48.225Z,6.10
2018-10-06T04:49:16.387Z,6.43
2018-10-06T04:51:44.502Z,6.57
2018-10-06T04:54:12.641Z,6.60
2018-10-06T04:56:40.741Z,6.33
2018-10-06T04:59:09.035Z,5.73
2018-10-06T05:01:37.193Z,6.23
2018-10-06T05:04:05.424Z,6.53
2018-10-06T05:06:33.784Z,6.17
2018-10-06T05:09:01.899Z,6.70
2018-10-06T05:11:30.141Z,6.87
2018-10-06T05:13:58.218Z,5.93
2018-10-06T05:16:26.415Z,6.23
2018-10-06T05:18:54.717Z,6.73
2018-10-06T05:21:22.909Z,6.63
2018-10-06T05:23:51.514Z,7.00
2018-10-06T05:26:19.638Z,7.17
2018-10-06T05:28:47.925Z,6.83
2018-10-06T05:31:16.153Z,6.87
2018-10-06T05:33:44.298Z,7.23
2018-10-06T05:36:12.371Z,6.37
2018-10-06T05:38:40.507Z,6.60
2018-10-06T05:41:08.721Z,6.43
2018-10-06T05:43:37.767Z,6.57
2018-10-06T05:46:06.158Z,9.07
2018-10-06T05:48:34.380Z,9.53
2018-10-06T05:51:02.515Z,10.67
2018-10-06T05:53:30.732Z,9.67
2018-10-06T05:55:58.909Z,7.70
2018-10-06T05:58:27.126Z,6.90
2018-10-06T06:00:55.318Z,7.07
2018-10-06T06:03:23.431Z,6.67
2018-10-06T06:05:51.718Z,7.23
2018-10-06T06:08:20.191Z,7.23
2018-10-06T06:10:48.306Z,7.20
2018-10-06T06:13:16.381Z,7.30
2018-10-06T06:15:44.509Z,7.30
2018-10-06T06:18:12.500Z,17.33
2018-10-06T06:20:40.625Z,6.93
2018-10-06T06:23:09.240Z,9.40
2018-10-06T06:25:37.491Z,8.47
2018-10-06T06:28:05.801Z,7.40
2018-10-06T06:30:34.028Z,5.70
2018-10-06T06:33:02.234Z,5.10
2018-10-06T06:35:30.506Z,5.03
2018-10-06T06:37:58.738Z,4.97
2018-10-06T06:40:26.985Z,4.73
2018-10-06T06:42:55.238Z,4.77
2018-10-06T06:45:23.337Z,5.50
2018-10-06T06:47:51.685Z,12.33
2018-10-06T06:50:19.948Z,6.60
2018-10-06T06:52:48.218Z,5.53
2018-10-06T06:55:16.303Z,5.67
2018-10-06T06:57:44.405Z,5.97
2018-10-06T07:00:12.567Z,6.37
2018-10-06T07:02:41.344Z,5.70
2018-10-06T07:05:09.450Z,5.53
2018-10-06T07:07:38.941Z,5.03
2018-10-06T07:10:07.064Z,5.37
2018-10-06T07:12:35.413Z,4.40
2018-10-06T07:15:03.620Z,4.80
2018-10-06T07:17:31.751Z,4.70
2018-10-06T07:19:59.948Z,4.80
2018-10-06T07:22:28.153Z,5.07
2018-10-06T07:24:56.387Z,4.70
2018-10-06T07:27:24.623Z,4.57
2018-10-06T07:29:52.817Z,5.30
2018-10-06T07:32:20.928Z,5.20
2018-10-06T07:34:49.040Z,5.17
2018-10-06T07:37:17.736Z,5.07
2018-10-06T07:39:45.809Z,5.03
2018-10-06T07:42:14.062Z,5.00
2018-10-06T07:44:42.274Z,5.97
2018-10-06T07:47:10.494Z,6.17
2018-10-06T07:49:38.630Z,5.60
2018-10-06T07:52:06.800Z,5.37
2018-10-06T07:54:34.969Z,5.80
2018-10-06T07:57:03.190Z,7.00
2018-10-06T07:59:31.255Z,6.17
2018-10-06T08:01:59.465Z,6.60
2018-10-06T08:04:27.611Z,5.53
2018-10-06T08:06:55.810Z,5.20
2018-10-06T08:09:24.298Z,5.40
2018-10-06T08:11:52.410Z,4.77
2018-10-06T08:14:20.539Z,5.30
2018-10-06T08:16:48.796Z,4.60
2018-10-06T08:19:16.994Z,4.63
2018-10-06T08:21:45.144Z,5.23
2018-10-06T08:24:13.253Z,4.80
2018-10-06T08:26:41.525Z,4.70
2018-10-06T08:29:09.697Z,5.00
2018-10-06T08:31:37.894Z,5.00
2018-10-06T08:34:06.202Z,5.53
2018-10-06T08:36:35.098Z,7.97
2018-10-06T08:39:19.465Z,5.70
2018-10-06T08:41:47.560Z,6.07
2018-10-06T08:44:16.362Z,6.63
2018-10-06T08:46:49.762Z,5.83
2018-10-06T08:49:17.807Z,5.80
2018-10-06T08:51:46.045Z,5.40
2018-10-06T08:54:14.121Z,5.37
2018-10-06T08:56:42.190Z,5.20
2018-10-06T08:59:10.287Z,5.10
2018-10-06T09:01:38.479Z,5.83
2018-10-06T09:04:06.651Z,5.10
2018-10-06T09:06:34.797Z,5.17
2018-10-06T09:09:04.318Z,5.27
2018-10-06T09:11:32.362Z,4.90
2018-10-06T09:14:01.258Z,5.43
2018-10-06T09:16:29.389Z,6.00
2018-10-06T09:18:57.469Z,5.27
2018-10-06T09:21:25.927Z,5.17
2018-10-06T09:23:54.067Z,5.43
2018-10-06T09:26:22.201Z,5.77
2018-10-06T09:28:50.435Z,6.17
2018-10-06T09:31:18.518Z,5.83
2018-10-06T09:33:46.663Z,5.90
2018-10-06T09:36:14.863Z,5.63
2018-10-06T09:38:42.930Z,6.23
2018-10-06T09:41:11.014Z,5.93
2018-10-06T09:43:39.087Z,6.00
2018-10-06T09:46:07.330Z,5.77
2018-10-06T09:48:35.509Z,5.73
2018-10-06T09:51:03.571Z,5.40
2018-10-06T09:53:31.748Z,6.60
2018-10-06T09:55:59.840Z,5.97
2018-10-06T09:58:28.718Z,4.80
2018-10-06T10:01:02.364Z,5.60
2018-10-06T10:03:36.145Z,5.90
2018-10-06T10:06:04.308Z,5.73
2018-10-06T10:08:32.313Z,5.80
2018-10-06T10:11:00.413Z,5.90
2018-10-06T10:13:28.583Z,5.97
2018-10-06T10:15:56.709Z,5.83
2018-10-06T10:18:24.967Z,6.07
2018-10-06T10:20:52.967Z,5.80
2018-10-06T10:23:21.800Z,5.03
2018-10-06T10:25:50.679Z,5.70
2018-10-06T10:28:18.872Z,5.13
2018-10-06T10:30:47.085Z,5.47
2018-10-06T10:33:15.153Z,5.60
2018-10-06T10:35:43.180Z,5.30
2018-10-06T10:38:11.339Z,5.37
2018-10-06T10:40:39.383Z,5.77
2018-10-06T10:43:07.451Z,5.90
2018-10-06T10:45:35.529Z,6.40
2018-10-06T10:48:03.659Z,6.47
2018-10-06T10:50:31.776Z,6.17
2018-10-06T10:52:59.964Z,5.33
2018-10-06T10:55:28.125Z,5.55
2018-10-06T10:57:56.261Z,5.33
2018-10-06T11:00:24.445Z,5.50
2018-10-06T11:02:52.595Z,5.55
2018-10-06T11:05:20.682Z,5.10
2018-10-06T11:07:48.852Z,5.87
2018-10-06T11:10:16.918Z,6.67
2018-10-06T11:12:45.070Z,5.27
2018-10-06T11:15:13.300Z,5.20
2018-10-06T11:17:41.546Z,4.93
2018-10-06T11:20:09.820Z,5.30
2018-10-06T11:22:37.998Z,5.60
2018-10-06T11:25:06.099Z,5.20
2018-10-06T11:27:34.528Z,5.23
2018-10-06T11:30:02.764Z,4.90
2018-10-06T11:32:31.069Z,5.20
2018-10-06T11:34:59.327Z,5.07
2018-10-06T11:37:28.315Z,4.70
2018-10-06T11:39:56.274Z,4.47
2018-10-06T11:42:24.502Z,4.57
2018-10-06T11:44:52.525Z,4.87
2018-10-06T11:47:20.708Z,5.00
2018-10-06T11:49:48.977Z,4.50
2018-10-06T11:52:17.033Z,4.77
2018-10-06T11:54:45.100Z,4.50
2018-10-06T11:57:13.891Z,4.13
2018-10-06T11:59:42.117Z,4.73
2018-10-06T12:02:10.189Z,4.67
2018-10-06T12:04:38.360Z,4.27
2018-10-06T12:07:06.486Z,4.40
2018-10-06T12:09:34.701Z,4.08
2018-10-06T12:12:02.774Z,4.22
2018-10-06T12:14:30.853Z,3.87
2018-10-06T12:16:59.372Z,4.12
2018-10-06T12:19:28.439Z,4.05
2018-10-06T12:21:56.625Z,4.40
2018-10-06T12:24:24.812Z,4.40
2018-10-06T12:26:52.810Z,3.98
2018-10-06T12:29:20.885Z,4.45
2018-10-06T12:31:49.030Z,4.03
2018-10-06T12:34:17.132Z,3.67
2018-10-06T12:36:45.294Z,3.67
2018-10-06T12:39:13.396Z,3.70
2018-10-06T12:41:41.484Z,3.80
2018-10-06T12:44:09.599Z,3.90
2018-10-06T12:46:37.777Z,3.90
2018-10-06T12:49:06.113Z,3.95
2018-10-06T12:51:34.357Z,3.87
2018-10-06T12:54:02.454Z,3.62
2018-10-06T12:56:30.582Z,3.60
2018-10-06T13:01:34.592Z,3.20
2018-10-06T13:04:02.762Z,3.67
2018-10-06T13:06:31.023Z,3.40
2018-10-06T13:08:59.205Z,3.52
2018-10-06T13:11:27.359Z,3.62
2018-10-06T13:13:55.504Z,4.25
2018-10-06T13:16:23.829Z,3.70
2018-10-06T13:18:52.131Z,3.50
2018-10-06T13:21:20.325Z,3.60
2018-10-06T13:23:49.141Z,3.63
2018-10-06T13:26:17.423Z,3.20
2018-10-06T13:28:45.652Z,3.20
2018-10-06T13:31:13.833Z,3.40
2018-10-06T13:33:41.959Z,3.30
2018-10-06T13:36:10.170Z,4.00
2018-10-06T13:38:38.405Z,3.50
2018-10-06T13:41:06.619Z,3.22
2018-10-06T13:43:34.915Z,3.37
2018-10-06T13:46:03.061Z,3.40
2018-10-06T13:48:31.442Z,3.42
2018-10-06T13:50:59.743Z,3.47
2018-10-06T13:53:27.923Z,3.58
2018-10-06T13:55:56.193Z,3.27
2018-10-06T13:58:24.507Z,3.37
2018-10-06T14:00:52.789Z,3.98
2018-10-06T14:03:21.065Z,3.20
2018-10-06T14:05:49.211Z,3.42
2018-10-06T14:08:17.365Z,3.52
2018-10-06T14:10:45.579Z,3.60
2018-10-06T14:13:13.810Z,3.50
2018-10-06T14:15:41.992Z,3.23
2018-10-06T14:18:10.213Z,4.50
2018-10-06T14:20:38.480Z,5.00
2018-10-06T14:23:06.753Z,3.27
2018-10-06T14:25:34.933Z,3.00
2018-10-06T14:28:03.072Z,3.50
2018-10-06T14:30:31.262Z,3.30
2018-10-06T14:32:59.389Z,3.13
2018-10-06T14:35:27.771Z,3.67
2018-10-06T14:37:55.868Z,3.53
2018-10-06T14:40:24.096Z,3.57
2018-10-06T14:42:52.418Z,3.33
2018-10-06T14:45:20.612Z,3.63
2018-10-06T14:47:48.870Z,3.53
2018-10-06T14:50:17.199Z,3.40
2018-10-06T14:52:45.469Z,3.50
2018-10-06T14:55:13.659Z,3.23
2018-10-06T14:57:41.800Z,3.40
2018-10-06T15:00:09.973Z,3.03
2018-10-06T15:02:38.082Z,3.30
2018-10-06T15:05:06.467Z,2.97
2018-10-06T15:07:35.026Z,3.57
2018-10-06T15:10:03.258Z,2.90
2018-10-06T15:12:31.580Z,3.00
2018-10-06T15:14:59.962Z,3.00
2018-10-06T15:17:28.062Z,4.03
2018-10-06T15:19:56.274Z,4.27
2018-10-06T15:22:24.550Z,3.37
2018-10-06T15:24:52.732Z,3.73
2018-10-06T15:27:20.809Z,3.20
2018-10-06T15:29:49.130Z,3.20
2018-10-06T15:32:17.373Z,3.37
2018-10-06T15:34:45.706Z,3.10
2018-10-06T15:37:13.862Z,2.83
2018-10-06T15:39:42.140Z,3.23
2018-10-06T15:42:10.286Z,3.17
2018-10-06T15:44:38.454Z,3.63
2018-10-06T15:47:06.553Z,3.53
2018-10-06T15:49:34.605Z,2.97
2018-10-06T15:52:02.800Z,3.43
2018-10-06T15:54:30.937Z,3.70
2018-10-06T15:56:58.988Z,3.37
2018-10-06T15:59:27.622Z,3.73
2018-10-06T16:01:55.791Z,3.87
2018-10-06T16:04:23.975Z,3.83
2018-10-06T16:06:52.094Z,4.20
2018-10-06T16:09:20.298Z,5.00
2018-10-06T16:11:49.188Z,5.30
2018-10-06T16:14:17.392Z,4.50
2018-10-06T16:16:46.140Z,4.40
2018-10-06T16:19:14.466Z,4.80
2018-10-06T16:21:42.922Z,5.63
2018-10-06T16:24:10.954Z,6.17
2018-10-06T16:26:39.115Z,5.40
2018-10-06T16:29:07.454Z,5.77
2018-10-06T16:31:35.700Z,5.40
2018-10-06T16:34:03.890Z,5.40
2018-10-06T16:36:31.924Z,7.80
2018-10-06T16:39:00.581Z,7.23
2018-10-06T16:41:28.685Z,6.87
2018-10-06T16:43:56.950Z,7.33
2018-10-06T16:46:25.231Z,7.23
2018-10-06T16:48:53.328Z,6.73
2018-10-06T16:51:21.629Z,6.37
2018-10-06T16:53:49.863Z,7.40
2018-10-06T16:56:18.570Z,7.53
2018-10-06T16:58:46.787Z,7.70
2018-10-06T17:01:15.102Z,7.53
2018-10-06T17:03:43.294Z,7.83
2018-10-06T17:06:12.211Z,7.63
2018-10-06T17:08:40.378Z,7.10
2018-10-06T17:11:08.568Z,6.70
2018-10-06T17:13:36.701Z,6.93
2018-10-06T17:16:04.871Z,5.93
2018-10-06T17:18:32.993Z,5.43
2018-10-06T17:21:01.139Z,5.37
2018-10-06T17:23:29.917Z,5.37
2018-10-06T17:25:58.077Z,5.03
2018-10-06T17:28:26.245Z,5.40
2018-10-06T17:30:54.508Z,4.77
2018-10-06T17:33:22.674Z,5.13
2018-10-06T17:35:51.383Z,9.10
2018-10-06T17:38:19.573Z,15.13
2018-10-06T17:40:47.795Z,8.27
2018-10-06T17:43:15.957Z,8.43
2018-10-06T17:45:44.275Z,9.13
2018-10-06T17:48:12.656Z,8.53
2018-10-06T17:50:41.060Z,8.37
2018-10-06T17:53:09.163Z,7.83
2018-10-06T17:55:37.340Z,7.93
2018-10-06T17:58:05.658Z,8.13
2018-10-06T18:00:33.730Z,7.80
2018-10-06T18:03:02.079Z,6.90
2018-10-06T18:05:30.402Z,6.70
2018-10-06T18:07:58.542Z,6.97
2018-10-06T18:10:26.582Z,7.23
2018-10-06T18:12:54.866Z,9.63
2018-10-06T18:15:24.023Z,8.40
2018-10-06T18:17:52.284Z,8.70
2018-10-06T18:20:20.548Z,8.77
2018-10-06T18:22:48.677Z,8.83
2018-10-06T18:25:17.113Z,6.70
2018-10-06T18:27:45.612Z,6.60
2018-10-06T18:30:13.664Z,6.80
2018-10-06T18:32:41.844Z,5.87
2018-10-06T18:35:10.040Z,5.83
2018-10-06T18:37:38.161Z,5.93
2018-10-06T18:40:06.313Z,5.67
2018-10-06T18:42:34.409Z,5.67
2018-10-06T18:45:02.641Z,6.30
2018-10-06T18:47:30.938Z,5.83
2018-10-06T18:49:59.261Z,5.83
2018-10-06T18:52:27.481Z,6.17
2018-10-06T18:54:55.716Z,6.00
2018-10-06T18:57:23.926Z,5.87
2018-10-06T18:59:52.403Z,6.87
2018-10-06T19:02:20.954Z,7.00
2018-10-06T19:04:49.434Z,6.93
2018-10-06T19:07:18.013Z,7.57
2018-10-06T19:09:46.554Z,7.80
2018-10-06T19:12:15.004Z,7.47
2018-10-06T19:14:43.703Z,7.83
2018-10-06T19:17:12.105Z,7.53
2018-10-06T19:19:40.607Z,6.90
2018-10-06T19:22:09.094Z,7.13
2018-10-06T19:24:38.103Z,6.93
2018-10-06T19:27:06.611Z,7.80
2018-10-06T19:29:34.921Z,7.10
2018-10-06T19:32:03.387Z,6.97
2018-10-06T19:34:31.874Z,6.70
2018-10-06T19:37:00.323Z,6.70
2018-10-06T19:39:28.853Z,6.93
2018-10-06T19:41:57.417Z,6.67
2018-10-06T19:44:25.824Z,6.17
2018-10-06T19:46:54.358Z,6.30
2018-10-06T19:49:22.850Z,6.37
2018-10-06T19:51:51.219Z,6.30
2018-10-06T19:54:19.841Z,5.97
2018-10-06T19:56:48.305Z,6.60
2018-10-06T19:59:16.921Z,6.47
2018-10-06T20:01:45.887Z,6.40
2018-10-06T20:04:14.400Z,6.50
2018-10-06T20:06:43.056Z,6.80
2018-10-06T20:09:12.063Z,7.07
2018-10-06T20:11:41.102Z,6.80
2018-10-06T20:14:09.570Z,6.10
2018-10-06T20:16:38.375Z,6.80
2018-10-06T20:19:06.950Z,8.60
2018-10-06T20:21:35.390Z,7.50
2018-10-06T20:24:03.842Z,8.10
2018-10-06T20:26:32.030Z,7.27
2018-10-06T20:29:00.094Z,8.00
2018-10-06T20:31:28.202Z,8.93
2018-10-06T20:33:56.321Z,9.43
2018-10-06T20:36:24.408Z,10.37
2018-10-06T20:38:52.564Z,9.80
2018-10-06T20:41:20.722Z,9.20
2018-10-06T20:43:48.774Z,9.53
2018-10-06T20:46:16.837Z,9.47
2018-10-06T20:48:44.978Z,10.50
2018-10-06T20:51:13.213Z,9.07
2018-10-06T20:53:41.505Z,9.27
2018-10-06T20:56:09.697Z,7.93
2018-10-06T20:58:39.226Z,8.03
2018-10-06T21:01:07.466Z,7.33
2018-10-06T21:03:35.722Z,7.33
2018-10-06T21:06:03.912Z,7.30
2018-10-06T21:08:32.067Z,7.37
2018-10-06T21:11:00.197Z,7.20
2018-10-06T21:13:28.327Z,7.23
2018-10-06T21:15:56.540Z,7.50
2018-10-06T21:18:24.821Z,8.40
2018-10-06T21:20:52.936Z,9.47
2018-10-06T21:23:21.126Z,10.97
2018-10-06T21:25:49.383Z,9.93
2018-10-06T21:28:17.591Z,9.70
2018-10-06T21:30:45.823Z,9.03
2018-10-06T21:33:14.077Z,9.77
2018-10-06T21:35:42.301Z,10.20
2018-10-06T21:38:11.125Z,9.43
2018-10-06T21:40:39.268Z,9.37
2018-10-06T21:43:07.536Z,9.47
2018-10-06T21:45:35.878Z,11.67
2018-10-06T21:48:04.899Z,13.33
2018-10-06T21:50:33.126Z,10.53
2018-10-06T21:53:01.248Z,11.63
2018-10-06T21:55:30.006Z,11.73
2018-10-06T21:57:58.325Z,11.03
2018-10-06T22:00:26.602Z,9.97
2018-10-06T22:02:54.689Z,9.53
2018-10-06T22:05:22.866Z,8.63
2018-10-06T22:07:51.079Z,8.93
2018-10-06T22:10:19.312Z,8.83
2018-10-06T22:12:47.441Z,8.50
2018-10-06T22:15:15.621Z,8.67
2018-10-06T22:17:43.687Z,8.40
2018-10-06T22:20:11.861Z,8.83
2018-10-06T22:22:39.979Z,8.50
2018-10-06T22:25:08.538Z,10.63
2018-10-06T22:27:36.538Z,15.00
2018-10-06T22:30:05.913Z,10.50
2018-10-06T22:32:34.049Z,11.23
2018-10-06T22:35:02.294Z,11.13
2018-10-06T22:37:30.740Z,9.70
2018-10-06T22:39:58.809Z,9.97
2018-10-06T22:42:26.877Z,9.47
2018-10-06T22:44:55.983Z,9.47
2018-10-06T22:47:24.280Z,8.47
2018-10-06T22:49:52.418Z,8.67
2018-10-06T22:52:20.514Z,9.63
2018-10-06T22:54:48.705Z,10.30
2018-10-06T22:57:16.855Z,13.27
2018-10-06T22:59:45.110Z,11.63
2018-10-06T23:02:13.359Z,8.30
2018-10-06T23:04:41.481Z,8.10
2018-10-06T23:07:09.670Z,7.53
2018-10-06T23:09:38.839Z,7.37
2018-10-06T23:12:06.980Z,7.87
2018-10-06T23:14:35.240Z,8.40
2018-10-06T23:17:03.450Z,8.70
2018-10-06T23:19:31.649Z,8.10
2018-10-06T23:21:59.786Z,7.80
2018-10-06T23:24:28.020Z,7.73
2018-10-06T23:26:56.297Z,7.13
2018-10-06T23:29:24.461Z,7.17
2018-10-06T23:31:52.697Z,7.20
2018-10-06T23:34:20.894Z,7.77
2018-10-06T23:36:49.249Z,7.33
2018-10-06T23:39:17.415Z,7.23
2018-10-06T23:41:45.704Z,6.83
2018-10-06T23:44:14.533Z,6.73
2018-10-06T23:46:42.730Z,7.33
2018-10-06T23:49:10.995Z,7.03
2018-10-06T23:51:39.195Z,6.63
2018-10-06T23:54:07.834Z,7.43
2018-10-06T23:56:35.943Z,7.53
2018-10-06T23:59:04.172Z,6.97
